Time;durP1;ratioP1;P1;durP2;ratioP2;P2;SDS_P1;SDS_P2;PMS_P1;PMS_P2;Temp;Humidity;BMP_temperature;BMP_pressure;BME280_temperature;BME280_humidity;BME280_pressure;Samples;Min_cycle;Max_cycle;Signal;HPM_P1;HPM_P2
2024/01/17 00:01:01;;;;;;;134.70;51.30;;;;;;;-8.79;71.77;100444.60;104756;1257;61236;-59
2024/01/17 00:03:48;;;;;;;146.00;51.40;;;;;;;-8.75;71.73;100440.34;104612;1258;139304;-60
2024/01/17 00:06:14;;;;;;;133.60;50.10;;;;;;;-8.77;71.65;100436.64;104898;1258;66857;-59
2024/01/17 00:08:41;;;;;;;132.50;50.40;;;;;;;-8.80;71.71;100428.91;104659;1258;139358;-60
2024/01/17 00:11:08;;;;;;;123.40;48.40;;;;;;;-8.82;71.64;100422.91;104847;1259;61276;-58
2024/01/17 00:13:34;;;;;;;117.80;46.10;;;;;;;-8.85;71.47;100416.19;104797;1259;61296;-59
2024/01/17 00:16:01;;;;;;;116.10;45.70;;;;;;;-8.86;71.94;100413.86;104652;1260;139179;-59
2024/01/17 00:18:28;;;;;;;114.60;43.90;;;;;;;-8.86;71.91;100420.55;104895;1258;65957;-59
2024/01/17 00:20:54;;;;;;;104.10;43.10;;;;;;;-8.85;72.14;100424.86;104951;1257;139678;-58
2024/01/17 00:23:21;;;;;;;126.70;48.60;;;;;;;-8.85;72.03;100422.27;104767;1257;61353;-60
2024/01/17 00:25:47;;;;;;;139.90;52.90;;;;;;;-8.86;72.06;100424.11;104800;1258;61320;-59
2024/01/17 00:28:14;;;;;;;140.90;50.90;;;;;;;-8.86;72.18;100426.48;104757;1260;139691;-59
2024/01/17 00:30:41;;;;;;;125.30;51.70;;;;;;;-8.83;72.35;100426.24;104979;1261;67446;-59
2024/01/17 00:33:07;;;;;;;141.70;55.70;;;;;;;-8.80;72.34;100425.52;104763;1258;139183;-59
2024/01/17 00:35:34;;;;;;;139.20;55.30;;;;;;;-8.79;72.25;100428.64;104860;1259;61268;-59
2024/01/17 00:38:01;;;;;;;144.90;55.80;;;;;;;-8.78;72.39;100432.08;104742;1258;61378;-58
2024/01/17 00:40:30;;;;;;;142.30;57.60;;;;;;;-8.76;72.49;100430.61;104838;1257;139107;-59
2024/01/17 00:42:58;;;;;;;134.20;52.90;;;;;;;-8.70;72.70;100425.05;104905;1257;66791;-59
2024/01/17 00:45:24;;;;;;;125.10;51.90;;;;;;;-8.69;72.35;100420.61;104600;1259;138999;-60
2024/01/17 00:47:51;;;;;;;125.40;48.20;;;;;;;-8.68;72.44;100420.13;104742;1259;61380;-60
2024/01/17 00:50:18;;;;;;;121.20;46.70;;;;;;;-8.69;72.29;100421.30;104819;1257;61311;-60
2024/01/17 00:52:45;;;;;;;115.60;46.30;;;;;;;-8.72;72.17;100420.31;108783;1257;139859;-60
2024/01/17 00:55:12;;;;;;;119.00;46.20;;;;;;;-8.74;72.13;100414.47;108986;1258;65013;-59
2024/01/17 00:57:38;;;;;;;113.80;46.50;;;;;;;-8.72;72.24;100411.76;108824;1256;139261;-58
2024/01/17 01:00:07;;;;;;;121.90;44.90;;;;;;;-8.70;72.51;100411.84;104820;1259;61259;-58
2024/01/17 01:02:34;;;;;;;115.90;45.60;;;;;;;-8.68;72.60;100409.92;108993;1257;59238;-59
2024/01/17 01:05:01;;;;;;;109.70;42.60;;;;;;;-8.64;72.46;100406.45;108896;1257;139395;-65
2024/01/17 01:07:27;;;;;;;91.40;39.00;;;;;;;-8.54;72.96;100403.60;108978;1259;67305;-65
2024/01/17 01:09:55;;;;;;;92.80;38.90;;;;;;;-8.48;72.69;100405.17;108853;1258;138889;-65
2024/01/17 01:12:21;;;;;;;95.50;36.60;;;;;;;-8.42;72.78;100398.49;108930;1257;59635;-65
2024/01/17 01:14:48;;;;;;;82.50;35.40;;;;;;;-8.33;72.65;100387.36;108843;1255;140357;-65
2024/01/17 01:17:15;;;;;;;83.00;34.00;;;;;;;-8.27;72.76;100384.20;108953;1258;72885;-64
2024/01/17 01:19:41;;;;;;;79.70;34.70;;;;;;;-8.20;72.89;100383.10;108968;1257;67671;-64
2024/01/17 01:22:08;;;;;;;87.50;37.30;;;;;;;-8.13;72.75;100384.08;108913;1256;138786;-64
2024/01/17 01:24:35;;;;;;;104.50;40.50;;;;;;;-8.06;72.75;100383.52;108917;1258;59751;-64
2024/01/17 01:27:01;;;;;;;110.10;41.30;;;;;;;-7.99;72.85;100383.30;108865;1257;139174;-64
2024/01/17 01:29:28;;;;;;;101.60;42.80;;;;;;;-7.93;72.98;100383.38;108993;1257;74851;-64
2024/01/17 01:31:55;;;;;;;101.70;41.60;;;;;;;-7.89;72.97;100377.30;108972;1260;66271;-64
2024/01/17 01:34:21;;;;;;;99.90;42.00;;;;;;;-7.84;72.86;100380.14;108870;1257;139062;-65
2024/01/17 01:36:48;;;;;;;100.90;42.50;;;;;;;-7.78;72.79;100376.73;108941;1257;59958;-65
2024/01/17 01:39:15;;;;;;;106.80;43.50;;;;;;;-7.66;72.93;100374.06;108858;1259;139804;-64
2024/01/17 01:41:41;;;;;;;99.80;41.00;;;;;;;-7.53;73.25;100370.14;108965;1257;73794;-65
2024/01/17 01:44:08;;;;;;;95.00;39.60;;;;;;;-7.38;73.27;100369.47;108980;1257;67352;-65
2024/01/17 01:46:34;;;;;;;92.10;39.30;;;;;;;-7.24;73.16;100363.73;108887;1257;138821;-65
2024/01/17 01:49:01;;;;;;;96.40;39.00;;;;;;;-7.12;72.92;100361.71;108823;1256;60434;-65
2024/01/17 01:51:28;;;;;;;86.60;39.30;;;;;;;-7.00;73.36;100361.71;108863;1257;140612;-64
2024/01/17 01:53:56;;;;;;;87.30;38.40;;;;;;;-6.88;73.10;100362.55;108850;1257;74130;-64
2024/01/17 01:56:26;;;;;;;86.20;36.50;;;;;;;-6.79;73.22;100360.63;108839;1255;65523;-58
2024/01/17 01:58:53;;;;;;;80.70;35.40;;;;;;;-6.67;73.03;100359.60;108874;1257;139175;-64
2024/01/17 02:01:20;;;;;;;86.30;36.00;;;;;;;-6.58;72.78;100349.65;108866;1257;59544;-64
2024/01/17 02:03:46;;;;;;;78.90;34.90;;;;;;;-6.49;73.12;100340.83;108666;1257;139456;-64
2024/01/17 02:06:13;;;;;;;84.40;34.60;;;;;;;-6.34;73.17;100338.72;108795;1256;74643;-63
2024/01/17 02:08:40;;;;;;;76.90;33.90;;;;;;;-6.19;73.17;100334.20;106845;1260;139030;-64
2024/01/17 02:11:07;;;;;;;72.50;31.30;;;;;;;-6.06;73.21;100332.19;104648;1257;73260;-64
2024/01/17 02:13:34;;;;;;;67.20;32.00;;;;;;;-5.93;73.44;100328.94;104724;1258;61256;-65
2024/01/17 02:16:00;;;;;;;68.10;32.80;;;;;;;-5.81;73.37;100328.76;104690;1257;138839;-64
2024/01/17 02:18:27;;;;;;;70.30;30.70;;;;;;;-5.71;73.42;100326.83;104790;1263;75041;-64
2024/01/17 02:20:54;;;;;;;68.70;29.80;;;;;;;-5.64;73.13;100325.69;104739;1261;139436;-65
2024/01/17 02:23:24;;;;;;;68.30;31.00;;;;;;;-5.58;73.03;100327.34;104826;1257;73104;-65
2024/01/17 02:25:52;;;;;;;73.00;32.00;;;;;;;-5.56;73.00;100323.98;108970;1257;59124;-64
2024/01/17 02:28:19;;;;;;;67.10;30.80;;;;;;;-5.50;73.18;100321.23;108876;1256;138773;-64
2024/01/17 02:30:45;;;;;;;69.30;32.20;;;;;;;-5.44;72.96;100312.65;108955;1258;76178;-64
2024/01/17 02:33:15;;;;;;;74.30;31.40;;;;;;;-5.35;73.11;100313.48;105657;1259;139619;-65
2024/01/17 02:35:42;;;;;;;64.80;29.90;;;;;;;-5.29;73.01;100317.29;104790;1260;73196;-66
2024/01/17 02:38:08;;;;;;;69.00;31.40;;;;;;;-5.30;72.80;100320.12;104709;1260;61353;-65
2024/01/17 02:40:35;;;;;;;74.40;33.50;;;;;;;-5.27;73.04;100316.27;104768;1259;138806;-65
2024/01/17 02:43:02;;;;;;;63.90;31.70;;;;;;;-5.21;72.94;100318.04;104747;1261;73494;-66
2024/01/17 02:45:29;;;;;;;63.80;31.20;;;;;;;-5.18;72.85;100316.92;108823;1259;138840;-65
2024/01/17 02:47:56;;;;;;;64.40;29.00;;;;;;;-5.18;72.84;100313.86;106406;1259;72994;-65
2024/01/17 02:50:23;;;;;;;62.10;30.30;;;;;;;-5.11;72.86;100308.59;104611;1258;61279;-64
2024/01/17 02:52:49;;;;;;;63.80;30.00;;;;;;;-5.01;73.17;100296.92;104738;1259;138626;-65
2024/01/17 02:55:16;;;;;;;68.50;30.80;;;;;;;-4.94;73.03;100293.01;104964;1258;75202;-65
2024/01/17 02:57:43;;;;;;;73.50;29.60;;;;;;;-4.88;73.00;100285.95;104573;1257;138796;-65
2024/01/17 03:00:10;;;;;;;68.40;30.80;;;;;;;-4.86;72.93;100286.27;104853;1258;73160;-58
2024/01/17 03:02:37;;;;;;;74.90;31.20;;;;;;;-4.81;73.04;100275.02;108971;1258;59064;-58
2024/01/17 03:05:05;;;;;;;60.90;28.10;;;;;;;-4.73;73.23;100271.23;108879;1257;60021;-59
2024/01/17 03:07:32;;;;;;;68.40;29.80;;;;;;;-4.66;73.01;100264.88;108999;1257;74923;-59
2024/01/17 03:09:59;;;;;;;72.10;29.70;;;;;;;-4.61;72.97;100262.70;106041;1259;138700;-60
2024/01/17 03:12:26;;;;;;;74.20;30.50;;;;;;;-4.58;73.02;100264.00;104888;1261;70569;-58
2024/01/17 03:14:53;;;;;;;65.80;28.80;;;;;;;-4.53;73.01;100260.80;104616;1258;138727;-58
2024/01/17 03:17:20;;;;;;;60.60;29.40;;;;;;;-4.48;73.08;100256.68;104797;1261;61260;-59
2024/01/17 03:19:47;;;;;;;68.20;28.10;;;;;;;-4.41;73.11;100261.13;104792;1259;74858;-58
2024/01/17 03:22:16;;;;;;;60.50;28.70;;;;;;;-4.36;73.15;100261.54;104705;1261;139181;-60
2024/01/17 03:24:46;;;;;;;68.60;27.80;;;;;;;-4.33;72.98;100260.21;104847;1259;73852;-60
2024/01/17 03:27:13;;;;;;;63.20;28.60;;;;;;;-4.34;73.09;100262.91;104475;1264;139316;-59
2024/01/17 03:29:39;;;;;;;62.60;27.70;;;;;;;-4.32;72.99;100270.97;104882;1258;61361;-59
2024/01/17 03:32:06;;;;;;;61.30;28.30;;;;;;;-4.31;73.08;100269.45;104796;1256;75418;-58
2024/01/17 03:34:34;;;;;;;64.30;27.90;;;;;;;-4.29;73.19;100270.25;108854;1257;138822;-59
2024/01/17 03:37:00;;;;;;;61.60;27.90;;;;;;;-4.24;73.23;100269.23;108982;1257;72112;-64
2024/01/17 03:39:27;;;;;;;58.40;27.50;;;;;;;-4.18;73.30;100263.39;108857;1257;139942;-59
2024/01/17 03:41:54;;;;;;;65.50;29.40;;;;;;;-4.13;73.33;100262.75;108959;1258;60927;-65
2024/01/17 03:44:22;;;;;;;67.80;26.90;;;;;;;-4.07;73.41;100263.39;109019;1257;74786;-65
2024/01/17 03:46:48;;;;;;;61.40;25.50;;;;;;;-3.99;73.40;100263.09;108907;1255;139282;-65
2024/01/17 03:49:15;;;;;;;60.60;26.70;;;;;;;-3.93;73.56;100253.15;108848;1256;73402;-65
2024/01/17 03:51:43;;;;;;;55.10;26.30;;;;;;;-3.90;73.51;100248.71;108881;1255;138775;-65
2024/01/17 03:54:09;;;;;;;61.50;26.20;;;;;;;-3.89;73.38;100243.79;108983;1257;60976;-65
2024/01/17 03:56:36;;;;;;;59.60;26.20;;;;;;;-3.89;73.44;100242.59;109014;1257;75874;-59
2024/01/17 03:59:04;;;;;;;59.40;29.10;;;;;;;-3.86;73.49;100238.34;108899;1257;139228;-59
2024/01/17 04:01:30;;;;;;;71.00;32.30;;;;;;;-3.83;73.62;100237.90;108981;1257;72019;-59
2024/01/17 04:03:57;;;;;;;65.30;27.40;;;;;;;-3.90;73.31;100218.53;105174;1261;138822;-59
2024/01/17 04:06:25;;;;;;;61.10;28.30;;;;;;;-4.02;73.12;100214.36;104790;1259;61347;-59
2024/01/17 04:08:52;;;;;;;52.90;26.40;;;;;;;-4.17;73.11;100217.89;104758;1261;139238;-59
2024/01/17 04:11:18;;;;;;;56.50;25.60;;;;;;;-4.32;73.08;100224.29;105007;1261;67137;-58
2024/01/17 04:13:45;;;;;;;53.80;26.60;;;;;;;-4.45;73.24;100232.20;104906;1261;73744;-58
2024/01/17 04:16:12;;;;;;;56.90;26.40;;;;;;;-4.54;73.38;100235.38;104693;1261;138720;-59
2024/01/17 04:18:39;;;;;;;57.60;28.10;;;;;;;-4.57;73.67;100234.09;104831;1260;63675;-59
2024/01/17 04:21:05;;;;;;;59.80;30.40;;;;;;;-4.54;73.80;100233.15;104742;1261;139067;-64
2024/01/17 04:23:32;;;;;;;59.30;28.60;;;;;;;-4.48;74.19;100236.45;104845;1261;66887;-65
2024/01/17 04:25:59;;;;;;;57.10;26.90;;;;;;;-4.46;74.24;100230.13;104872;1258;73787;-65
2024/01/17 04:28:25;;;;;;;56.20;26.30;;;;;;;-4.40;74.41;100229.19;104843;1261;138693;-65
2024/01/17 04:30:52;;;;;;;62.60;27.10;;;;;;;-4.37;74.42;100230.80;104791;1259;61360;-63
2024/01/17 04:33:19;;;;;;;56.80;26.50;;;;;;;-4.35;74.41;100228.58;104657;1258;139374;-65
2024/01/17 04:35:45;;;;;;;46.90;25.50;;;;;;;-4.37;74.46;100242.48;104879;1260;67541;-65
2024/01/17 04:38:12;;;;;;;62.40;28.40;;;;;;;-4.34;74.63;100237.52;104871;1260;72118;-65
2024/01/17 04:40:39;;;;;;;56.90;27.40;;;;;;;-4.26;74.76;100237.63;104672;1259;139058;-65
2024/01/17 04:43:06;;;;;;;62.80;31.30;;;;;;;-4.20;74.91;100237.73;104800;1261;61245;-65
2024/01/17 04:45:33;;;;;;;61.40;29.80;;;;;;;-4.12;74.95;100228.55;104787;1258;139193;-64
2024/01/17 04:48:00;;;;;;;59.30;30.10;;;;;;;-4.05;75.07;100220.36;104730;1257;66442;-65
2024/01/17 04:50:28;;;;;;;57.10;26.40;;;;;;;-3.95;75.27;100211.98;104812;1261;73612;-65
2024/01/17 04:52:55;;;;;;;53.30;25.30;;;;;;;-3.87;75.15;100214.81;104738;1258;139269;-66
2024/01/17 04:55:21;;;;;;;58.20;26.80;;;;;;;-3.80;75.12;100211.53;104855;1258;61252;-66
2024/01/17 04:57:49;;;;;;;57.40;26.30;;;;;;;-3.73;75.24;100210.32;104748;1259;138553;-66
2024/01/17 05:00:16;;;;;;;54.90;26.80;;;;;;;-3.66;75.21;100206.19;108928;1257;67568;-65
2024/01/17 05:02:43;;;;;;;58.80;27.20;;;;;;;-3.60;75.27;100201.66;108829;1258;139364;-66
2024/01/17 05:05:10;;;;;;;49.40;26.00;;;;;;;-3.52;75.30;100196.93;108784;1259;60499;-65
2024/01/17 05:07:37;;;;;;;58.20;27.70;;;;;;;-3.42;75.41;100196.27;109008;1257;59105;-66
2024/01/17 05:10:04;;;;;;;54.40;26.90;;;;;;;-3.36;75.28;100195.02;108830;1257;138835;-66
2024/01/17 05:12:33;;;;;;;53.20;26.90;;;;;;;-3.29;75.33;100192.37;108918;1259;66050;-66
2024/01/17 05:14:59;;;;;;;54.70;25.50;;;;;;;-3.23;75.38;100185.63;108828;1257;139381;-67
2024/01/17 05:17:26;;;;;;;54.00;27.40;;;;;;;-3.18;75.21;100179.98;108797;1258;60406;-67
2024/01/17 05:19:53;;;;;;;50.80;26.30;;;;;;;-3.15;75.32;100170.19;109014;1257;59518;-67
2024/01/17 05:22:19;;;;;;;59.50;30.10;;;;;;;-3.07;75.39;100169.06;108883;1257;139371;-66
2024/01/17 05:24:49;;;;;;;55.70;29.10;;;;;;;-3.01;75.43;100171.19;108803;1257;65245;-66
2024/01/17 05:27:16;;;;;;;52.90;28.20;;;;;;;-2.95;75.45;100164.36;108845;1257;139604;-67
2024/01/17 05:29:43;;;;;;;56.80;29.50;;;;;;;-2.91;75.41;100159.48;108904;1257;59340;-66
2024/01/17 05:32:10;;;;;;;76.00;32.50;;;;;;;-2.88;75.35;100157.50;108951;1257;59047;-65
2024/01/17 05:34:37;;;;;;;74.50;32.60;;;;;;;-2.85;75.33;100153.70;108845;1257;139505;-66
2024/01/17 05:37:06;;;;;;;62.00;31.90;;;;;;;-2.83;75.33;100155.56;108370;1258;65146;-65
2024/01/17 05:39:33;;;;;;;58.70;31.10;;;;;;;-2.82;75.24;100154.98;105005;1258;139113;-65
2024/01/17 05:41:59;;;;;;;57.00;28.70;;;;;;;-2.80;75.30;100154.23;104979;1261;61389;-64
2024/01/17 05:44:26;;;;;;;61.30;28.40;;;;;;;-2.77;75.30;100152.03;104915;1260;61124;-65
2024/01/17 05:46:53;;;;;;;79.80;31.60;;;;;;;-2.76;75.34;100153.71;104754;1261;139169;-65
2024/01/17 05:49:19;;;;;;;73.20;30.90;;;;;;;-2.70;75.44;100153.70;104922;1261;65645;-64
2024/01/17 05:51:46;;;;;;;73.60;31.90;;;;;;;-2.67;75.40;100149.77;104643;1259;138845;-65
2024/01/17 05:54:13;;;;;;;65.10;29.70;;;;;;;-2.66;75.47;100147.98;104951;1261;61247;-59
2024/01/17 05:56:40;;;;;;;50.30;26.60;;;;;;;-2.64;75.41;100137.49;104704;1261;139313;-59
2024/01/17 05:59:06;;;;;;;47.40;24.90;;;;;;;-2.64;75.41;100132.30;104867;1259;74728;-64
2024/01/17 06:01:34;;;;;;;51.60;26.10;;;;;;;-2.71;75.31;100126.88;104767;1261;65585;-64
2024/01/17 06:04:02;;;;;;;51.80;24.90;;;;;;;-2.72;75.27;100131.11;104685;1261;139041;-64
2024/01/17 06:06:29;;;;;;;48.00;23.90;;;;;;;-2.72;75.39;100136.08;104750;1261;61274;-64
2024/01/17 06:08:55;;;;;;;47.20;24.40;;;;;;;-2.75;75.30;100138.65;104832;1258;140860;-66
2024/01/17 06:11:22;;;;;;;48.00;24.70;;;;;;;-2.76;75.44;100137.50;104849;1259;73707;-65
2024/01/17 06:13:49;;;;;;;52.00;26.20;;;;;;;-2.77;75.60;100130.59;104707;1257;66635;-66
2024/01/17 06:16:16;;;;;;;44.20;24.70;;;;;;;-2.74;75.77;100133.17;104732;1260;138529;-65
2024/01/17 06:18:42;;;;;;;44.30;23.00;;;;;;;-2.73;75.64;100129.80;104884;1260;61242;-65
2024/01/17 06:21:09;;;;;;;49.80;24.30;;;;;;;-2.74;75.55;100126.52;104689;1261;138829;-66
2024/01/17 06:23:36;;;;;;;48.20;25.00;;;;;;;-2.71;75.61;100128.74;104573;1263;73840;-67
2024/01/17 06:26:03;;;;;;;52.10;26.00;;;;;;;-2.70;75.71;100121.96;104740;1262;65799;-66
2024/01/17 06:28:30;;;;;;;42.10;23.90;;;;;;;-2.68;75.83;100125.86;104556;1259;139361;-66
2024/01/17 06:30:56;;;;;;;46.90;26.10;;;;;;;-2.67;75.85;100125.91;104674;1261;61352;-63
2024/01/17 06:33:23;;;;;;;43.70;25.40;;;;;;;-2.65;75.88;100122.95;104301;1262;139326;-66
2024/01/17 06:35:50;;;;;;;50.90;25.50;;;;;;;-2.63;75.97;100124.52;104727;1259;75478;-66
2024/01/17 06:38:16;;;;;;;45.70;24.50;;;;;;;-2.60;75.94;100125.04;105007;1257;64978;-68
2024/01/17 06:40:43;;;;;;;51.30;27.10;;;;;;;-2.54;76.15;100119.39;104737;1261;139269;-65
2024/01/17 06:43:10;;;;;;;50.30;26.10;;;;;;;-2.52;75.99;100114.90;104627;1262;61294;-65
2024/01/17 06:45:37;;;;;;;54.20;28.60;;;;;;;-2.50;76.00;100115.73;104556;1260;139328;-66
2024/01/17 06:48:04;;;;;;;57.70;29.00;;;;;;;-2.46;76.11;100113.57;104473;1259;74094;-66
2024/01/17 06:50:30;;;;;;;59.30;29.40;;;;;;;-2.43;76.18;100112.96;104678;1260;66668;-66
2024/01/17 06:52:57;;;;;;;61.40;31.10;;;;;;;-2.41;76.14;100111.36;104787;1261;138599;-66
2024/01/17 06:55:25;;;;;;;63.50;32.80;;;;;;;-2.36;76.19;100107.17;104784;1261;61414;-66
2024/01/17 06:57:52;;;;;;;67.70;31.90;;;;;;;-2.33;76.25;100098.41;104692;1259;138962;-66
2024/01/17 07:00:20;;;;;;;63.60;31.50;;;;;;;-2.33;76.21;100089.19;104813;1261;74125;-66
2024/01/17 07:02:47;;;;;;;58.80;30.30;;;;;;;-2.33;76.13;100082.33;104688;1257;139110;-66
2024/01/17 07:05:14;;;;;;;62.30;33.80;;;;;;;-2.30;76.22;100077.14;108836;1256;73806;-66
2024/01/17 07:07:41;;;;;;;56.20;31.60;;;;;;;-2.28;76.23;100076.48;108780;1261;59180;-65
2024/01/17 07:10:08;;;;;;;59.20;33.00;;;;;;;-2.24;76.43;100074.95;104786;1261;138957;-66
2024/01/17 07:12:35;;;;;;;63.40;34.40;;;;;;;-2.20;76.38;100073.70;104828;1260;75897;-67
2024/01/17 07:15:02;;;;;;;72.90;37.50;;;;;;;-2.16;76.43;100073.46;104677;1269;138752;-66
2024/01/17 07:17:28;;;;;;;77.80;42.30;;;;;;;-2.14;76.39;100069.77;104875;1260;73144;-66
2024/01/17 07:19:55;;;;;;;73.50;39.60;;;;;;;-2.13;76.45;100073.09;105042;1263;61323;-66
2024/01/17 07:22:21;;;;;;;59.40;34.90;;;;;;;-2.10;76.45;100071.08;104783;1256;139032;-67
2024/01/17 07:24:48;;;;;;;58.20;30.70;;;;;;;-2.08;76.48;100065.69;104727;1259;72530;-66
2024/01/17 07:27:15;;;;;;;67.40;35.30;;;;;;;-2.08;76.52;100068.09;104592;1264;139119;-66
2024/01/17 07:29:42;;;;;;;57.10;31.30;;;;;;;-2.07;76.45;100062.15;105075;1257;73251;-67
2024/01/17 07:32:08;;;;;;;67.30;34.50;;;;;;;-2.07;76.36;100055.44;105032;1261;61367;-66
2024/01/17 07:34:35;;;;;;;67.40;34.90;;;;;;;-2.09;76.48;100049.65;104699;1259;138557;-66
2024/01/17 07:37:02;;;;;;;77.60;38.70;;;;;;;-2.10;76.38;100046.86;104858;1260;73892;-66
2024/01/17 07:39:28;;;;;;;84.20;41.70;;;;;;;-2.05;76.56;100038.38;104653;1271;138628;-66
2024/01/17 07:41:56;;;;;;;79.00;39.00;;;;;;;-2.00;76.63;100034.72;104910;1261;72648;-66
2024/01/17 07:44:26;;;;;;;70.10;36.00;;;;;;;-1.97;76.79;100028.77;104875;1263;61383;-66
2024/01/17 07:46:53;;;;;;;73.40;36.00;;;;;;;-1.93;76.55;100023.63;108838;1258;139703;-60
2024/01/17 07:49:20;;;;;;;62.00;33.60;;;;;;;-1.88;76.72;100013.64;108969;1257;74355;-59
2024/01/17 07:51:46;;;;;;;63.50;34.60;;;;;;;-1.84;76.76;100001.52;108755;1260;138938;-60
2024/01/17 07:54:13;;;;;;;54.00;30.40;;;;;;;-1.78;76.86;99994.01;108993;1257;71413;-60
2024/01/17 07:56:40;;;;;;;57.70;31.40;;;;;;;-1.72;76.94;99993.33;108852;1261;138782;-59
2024/01/17 07:59:07;;;;;;;57.10;31.50;;;;;;;-1.64;77.09;99990.19;109056;1259;59297;-66
2024/01/17 08:01:34;;;;;;;62.40;32.30;;;;;;;-1.60;77.18;99986.17;109023;1257;74965;-66
2024/01/17 08:04:00;;;;;;;57.90;31.60;;;;;;;-1.52;77.06;99984.55;108723;1262;138626;-67
2024/01/17 08:06:28;;;;;;;62.80;34.20;;;;;;;-1.46;77.00;99982.35;108984;1260;73736;-67
2024/01/17 08:08:56;;;;;;;65.50;33.40;;;;;;;-1.37;77.33;99982.35;108557;1256;139283;-65
2024/01/17 08:11:23;;;;;;;61.00;34.70;;;;;;;-1.30;77.04;99972.45;104907;1261;61791;-65
2024/01/17 08:13:49;;;;;;;67.10;34.70;;;;;;;-1.24;77.07;99965.59;108173;1259;74837;-66
2024/01/17 08:16:16;;;;;;;63.40;33.80;;;;;;;-1.19;77.06;99961.56;104348;1260;473213;-66
2024/01/17 08:18:46;;;;;;;63.30;33.70;;;;;;;-1.17;77.02;99956.70;104719;1261;71420;-67
2024/01/17 08:21:18;;;;;;;66.80;36.10;;;;;;;-1.14;77.07;99952.89;108753;1261;139073;-66
2024/01/17 08:23:45;;;;;;;67.10;35.40;;;;;;;-1.09;77.18;99949.60;108988;1260;60710;-66
2024/01/17 08:26:11;;;;;;;62.50;34.80;;;;;;;-1.04;77.18;99947.50;108988;1257;73947;-60
2024/01/17 08:28:38;;;;;;;62.10;33.90;;;;;;;-0.99;77.15;99945.85;108871;1257;137724;-60
2024/01/17 08:31:05;;;;;;;73.90;36.90;;;;;;;-0.97;76.99;99945.80;108990;1257;71686;-58
2024/01/17 08:33:31;;;;;;;66.50;35.30;;;;;;;-0.94;77.11;99950.95;107042;1260;138331;-66
2024/01/17 08:36:00;;;;;;;72.10;36.30;;;;;;;-0.91;77.03;99953.04;104985;1262;61274;-67
2024/01/17 08:38:27;;;;;;;70.90;37.30;;;;;;;-0.90;77.10;99951.58;105017;1256;75712;-66
2024/01/17 08:40:54;;;;;;;67.20;38.40;;;;;;;-0.88;77.11;99951.48;104826;1261;137907;-66
2024/01/17 08:43:21;;;;;;;76.90;42.10;;;;;;;-0.84;77.16;99943.46;104625;1265;72215;-67
2024/01/17 08:45:47;;;;;;;80.30;42.00;;;;;;;-0.80;77.18;99937.66;104522;1261;137923;-67
2024/01/17 08:48:14;;;;;;;82.30;43.70;;;;;;;-0.78;77.15;99933.96;104821;1258;61284;-67
2024/01/17 08:50:40;;;;;;;76.70;40.00;;;;;;;-0.76;77.14;99923.23;104795;1269;138708;-64
2024/01/17 08:53:07;;;;;;;80.20;41.10;;;;;;;-0.76;76.95;99921.33;108724;1257;66031;-60
2024/01/17 08:55:34;;;;;;;81.60;40.60;;;;;;;-0.78;76.99;99916.58;108950;1257;71456;-61
2024/01/17 08:58:00;;;;;;;75.90;38.30;;;;;;;-0.75;77.11;99915.52;108848;1260;138623;-59
2024/01/17 09:00:27;;;;;;;69.50;38.80;;;;;;;-0.71;77.02;99914.20;108984;1257;59578;-66
2024/01/17 09:02:54;;;;;;;83.10;43.60;;;;;;;-0.64;77.26;99903.92;108767;1257;138848;-65
2024/01/17 09:05:21;;;;;;;78.50;41.20;;;;;;;-0.57;77.07;99901.04;107430;1258;66321;-66
2024/01/17 09:10:26;;;;;;;73.60;41.90;;;;;;;-0.46;77.06;99900.10;101817;1294;599626;-66
2024/01/17 09:12:52;;;;;;;85.70;43.80;;;;;;;-0.44;77.03;99900.88;104124;1274;57898;-66
2024/01/17 09:15:19;;;;;;;84.50;42.70;;;;;;;-0.41;76.97;99897.27;103918;1268;136834;-66
2024/01/17 09:17:46;;;;;;;83.40;43.40;;;;;;;-0.34;77.12;99892.13;104291;1266;71863;-67
2024/01/17 09:20:14;;;;;;;84.70;41.20;;;;;;;-0.28;77.03;99883.30;104410;1272;66668;-68
2024/01/17 09:22:41;;;;;;;83.30;40.30;;;;;;;-0.26;76.87;99877.38;108376;1266;136925;-66
2024/01/17 09:25:08;;;;;;;83.80;43.00;;;;;;;-0.23;76.91;99873.20;108355;1266;182070;-66
2024/01/17 09:27:35;;;;;;;73.70;40.40;;;;;;;-0.19;77.03;99868.11;108497;1263;145898;-65
2024/01/17 09:30:02;;;;;;;77.80;41.40;;;;;;;-0.18;76.61;99865.39;105611;1269;71179;-59
2024/01/17 09:32:29;;;;;;;72.20;38.50;;;;;;;-0.17;76.70;99862.71;105126;1257;66334;-60
2024/01/17 09:34:56;;;;;;;75.60;37.00;;;;;;;-0.13;76.78;99861.17;104940;1257;137737;-60
2024/01/17 09:37:22;;;;;;;70.70;36.60;;;;;;;-0.09;76.78;99860.73;105170;1254;59679;-60
2024/01/17 09:39:49;;;;;;;61.80;33.20;;;;;;;-0.06;76.54;99859.48;105003;1258;137523;-59
2024/01/17 09:42:16;;;;;;;61.10;33.60;;;;;;;-0.07;76.54;99854.41;105156;1254;74146;-61
2024/01/17 09:44:43;;;;;;;62.60;33.90;;;;;;;-0.06;76.66;99849.48;104953;1257;137759;-60
2024/01/17 09:47:11;;;;;;;51.80;29.10;;;;;;;-0.00;76.59;99842.53;105013;1254;72744;-59
2024/01/17 09:49:39;;;;;;;58.20;32.20;;;;;;;0.02;76.44;99830.89;105071;1256;59837;-59
2024/01/17 09:52:06;;;;;;;62.70;32.70;;;;;;;0.01;76.43;99827.06;104900;1259;136927;-60
2024/01/17 09:54:40;;;;;;;56.40;31.50;;;;;;;0.07;76.53;99824.09;104910;1258;73977;-58
2024/01/17 09:57:07;;;;;;;58.80;31.70;;;;;;;0.13;76.53;99822.52;106921;1257;137258;-59
2024/01/17 09:59:36;;;;;;;59.30;31.20;;;;;;;0.18;76.43;99821.44;104759;1262;73064;-60
2024/01/17 10:02:03;;;;;;;58.30;31.80;;;;;;;0.23;76.47;99820.25;109058;1257;57865;-60
2024/01/17 10:04:29;;;;;;;50.20;29.50;;;;;;;0.25;76.31;99819.69;108856;1260;137587;-60
2024/01/17 10:06:56;;;;;;;56.60;30.70;;;;;;;0.29;76.26;99816.92;104976;1256;72747;-59
2024/01/17 10:09:26;;;;;;;57.90;31.90;;;;;;;0.32;76.12;99807.96;104800;1261;138536;-60
2024/01/17 10:11:53;;;;;;;55.40;30.50;;;;;;;0.37;76.09;99802.69;104879;1262;72458;-59
2024/01/17 10:14:21;;;;;;;46.60;28.20;;;;;;;0.41;76.08;99793.73;105040;1256;59736;-60
2024/01/17 10:16:48;;;;;;;45.30;27.40;;;;;;;0.42;76.11;99790.48;108923;1256;137360;-60
2024/01/17 10:19:16;;;;;;;53.30;28.70;;;;;;;0.41;76.10;99786.47;109104;1256;73147;-60
2024/01/17 10:21:43;;;;;;;48.00;28.60;;;;;;;0.43;75.86;99778.66;106455;1257;137571;-59
2024/01/17 10:24:10;;;;;;;44.50;27.60;;;;;;;0.47;75.84;99772.66;105150;1257;73116;-59
2024/01/17 10:26:41;;;;;;;49.90;28.80;;;;;;;0.50;75.89;99767.26;107599;1256;59673;-59
2024/01/17 10:29:09;;;;;;;45.80;28.20;;;;;;;0.54;75.80;99760.91;109067;1256;61061;-59
2024/01/17 10:31:38;;;;;;;43.50;26.70;;;;;;;0.59;75.98;99756.16;109053;1256;71853;-59
2024/01/17 10:34:05;;;;;;;47.40;26.60;;;;;;;0.72;75.88;99751.42;109026;1256;136925;-59
2024/01/17 10:36:33;;;;;;;43.70;26.40;;;;;;;0.85;75.77;99741.13;109093;1256;72025;-60
2024/01/17 10:39:03;;;;;;;45.10;27.10;;;;;;;0.93;75.52;99732.90;108973;1256;137880;-60
2024/01/17 10:41:31;;;;;;;33.90;22.00;;;;;;;1.02;75.37;99727.23;109128;1256;60408;-60
2024/01/17 10:44:00;;;;;;;37.50;22.60;;;;;;;1.05;75.15;99725.30;108983;1256;72366;-60
2024/01/17 10:46:27;;;;;;;36.10;21.90;;;;;;;1.09;74.97;99727.05;108955;1256;137548;-66
2024/01/17 10:48:56;;;;;;;38.70;23.90;;;;;;;1.19;74.89;99718.88;109050;1256;74496;-67
2024/01/17 10:51:23;;;;;;;40.50;25.40;;;;;;;1.35;74.91;99716.14;108838;1257;137623;-66
2024/01/17 10:53:54;;;;;;;42.00;25.00;;;;;;;1.51;74.96;99714.96;109259;1254;60239;-66
2024/01/17 10:56:20;;;;;;;42.10;25.70;;;;;;;1.63;74.53;99711.66;109041;1257;73193;-67
2024/01/17 10:58:49;;;;;;;43.40;25.60;;;;;;;1.70;74.44;99702.33;109128;1257;138276;-65
2024/01/17 11:01:26;;;;;;;36.50;24.30;;;;;;;1.80;74.45;99700.27;109220;1255;72120;-67